createdAt,value
2023-06-11T00:05:08.677Z,88.13
2023-06-11T00:10:17.448Z,87.29
2023-06-11T00:15:20.482Z,86.75
2023-06-11T00:21:09.774Z,86.51
2023-06-11T00:26:36.712Z,86.87
2023-06-11T00:32:13.099Z,87.17
2023-06-11T00:37:23.738Z,87.78
2023-06-11T00:43:08.597Z,88.71
2023-06-11T00:48:31.636Z,89.25
2023-06-11T00:53:55.987Z,89.10
2023-06-11T00:59:18.947Z,88.98
2023-06-11T01:04:34.141Z,89.94
2023-06-11T01:09:58.196Z,89.97
2023-06-11T01:15:22.095Z,90.40
2023-06-11T01:21:31.562Z,90.51
2023-06-11T01:28:44.715Z,90.61
2023-06-11T01:35:40.112Z,91.07
2023-06-11T01:41:28.432Z,91.05
2023-06-11T01:47:49.772Z,91.21
2023-06-11T01:53:22.514Z,90.99
2023-06-11T01:58:34.069Z,90.72
2023-06-11T02:03:54.589Z,90.76
2023-06-11T02:10:34.742Z,91.08
2023-06-11T02:16:44.951Z,91.29
2023-06-11T02:23:19.393Z,91.04
2023-06-11T02:30:03.905Z,90.84
2023-06-11T02:36:18.139Z,91.18
2023-06-11T02:42:20.963Z,90.37
2023-06-11T02:48:27.131Z,88.58
2023-06-11T02:55:10.470Z,87.76
2023-06-11T03:00:58.557Z,89.78
2023-06-11T03:06:37.353Z,90.01
2023-06-11T03:12:22.288Z,88.70
2023-06-11T03:18:22.535Z,89.77
2023-06-11T03:24:27.318Z,89.36
2023-06-11T03:30:03.865Z,89.22
2023-06-11T03:37:03.625Z,87.41
2023-06-11T03:43:19.720Z,83.58
2023-06-11T03:49:50.452Z,85.43
2023-06-11T03:56:01.625Z,85.95
2023-06-11T04:01:12.641Z,84.00
2023-06-11T04:07:00.214Z,82.88
2023-06-11T04:12:34.501Z,83.06
2023-06-11T04:18:08.499Z,82.50
2023-06-11T04:23:41.525Z,82.90
2023-06-11T04:29:25.648Z,83.95
2023-06-11T04:35:28.233Z,82.64
2023-06-11T04:41:04.778Z,81.53
2023-06-11T04:47:18.688Z,81.56
2023-06-11T04:52:46.099Z,80.25
2023-06-11T04:58:31.356Z,79.59
2023-06-11T05:04:26.473Z,79.85
2023-06-11T05:10:39.706Z,80.40
2023-06-11T05:16:21.906Z,81.10
2023-06-11T05:22:50.855Z,82.19
2023-06-11T05:28:20.845Z,80.75
2023-06-11T05:33:37.970Z,79.84
2023-06-11T05:39:07.414Z,78.33
2023-06-11T05:44:12.310Z,78.04
2023-06-11T05:49:30.062Z,76.81
2023-06-11T05:54:41.436Z,74.15
2023-06-11T06:00:15.028Z,75.54
2023-06-11T06:06:05.070Z,75.59
2023-06-11T06:11:14.363Z,76.27
2023-06-11T06:16:29.052Z,74.53
2023-06-11T06:22:05.772Z,73.20
2023-06-11T06:27:11.801Z,72.22
2023-06-11T06:32:16.694Z,70.88
2023-06-11T06:37:44.857Z,69.62
2023-06-11T06:42:58.186Z,69.49
2023-06-11T06:48:35.277Z,72.21
2023-06-11T06:54:06.976Z,70.00
2023-06-11T06:59:24.149Z,70.46
2023-06-11T07:04:58.171Z,67.45
2023-06-11T07:11:02.342Z,68.52
2023-06-11T07:17:14.932Z,69.80
2023-06-11T07:22:51.862Z,67.00
2023-06-11T07:28:06.775Z,67.96
2023-06-11T07:33:18.120Z,67.01
2023-06-11T07:38:45.432Z,69.17
2023-06-11T07:43:48.941Z,66.97
2023-06-11T07:48:54.109Z,66.18
2023-06-11T07:54:07.155Z,65.16
2023-06-11T07:59:21.354Z,68.74
2023-06-11T08:04:23.872Z,68.79
2023-06-11T08:09:30.964Z,62.91
2023-06-11T08:14:38.434Z,64.28
2023-06-11T08:19:40.663Z,62.33
2023-06-11T08:24:51.723Z,63.69
2023-06-11T08:29:54.174Z,64.62
2023-06-11T08:35:02.254Z,62.89
2023-06-11T08:40:30.528Z,62.27
2023-06-11T08:45:46.209Z,60.43
2023-06-11T08:51:05.830Z,59.91
2023-06-11T08:56:10.957Z,59.32
2023-06-11T09:01:24.573Z,57.87
2023-06-11T09:06:29.230Z,59.81
2023-06-11T09:12:06.956Z,61.36
2023-06-11T09:17:42.915Z,58.41
2023-06-11T09:22:46.785Z,57.95
2023-06-11T09:27:52.041Z,56.74
2023-06-11T09:32:54.914Z,58.33
2023-06-11T09:37:57.368Z,58.78
2023-06-11T09:43:06.796Z,58.10
2023-06-11T09:48:13.247Z,55.09
2023-06-11T09:53:28.996Z,57.16
2023-06-11T09:58:38.215Z,58.72
2023-06-11T10:03:41.718Z,59.69
2023-06-11T10:09:04.925Z,58.79
2023-06-11T10:14:17.153Z,58.94
2023-06-11T10:19:43.403Z,57.99
2023-06-11T10:25:02.940Z,54.42
2023-06-11T10:30:09.338Z,56.27
2023-06-11T10:35:41.490Z,52.77
2023-06-11T10:40:49.141Z,53.10
2023-06-11T10:46:19.350Z,55.95
2023-06-11T10:51:25.141Z,55.16
2023-06-11T10:56:30.926Z,55.01
2023-06-11T11:01:36.120Z,55.22
2023-06-11T11:06:54.139Z,55.35
2023-06-11T11:11:59.958Z,54.94
2023-06-11T11:17:03.790Z,55.13
2023-06-11T11:22:07.961Z,54.10
2023-06-11T11:27:10.808Z,52.49
2023-06-11T11:32:30.299Z,50.91
2023-06-11T11:37:34.891Z,50.95
2023-06-11T11:42:52.163Z,49.53
2023-06-11T11:47:54.545Z,47.86
2023-06-11T11:53:05.243Z,52.64
2023-06-11T11:58:09.851Z,48.13
2023-06-11T12:03:18.244Z,49.61
2023-06-11T12:08:33.511Z,51.72
2023-06-11T12:13:46.509Z,49.80
2023-06-11T12:19:18.674Z,51.65
2023-06-11T12:24:27.382Z,51.00
2023-06-11T12:29:54.572Z,49.31
2023-06-11T12:35:08.831Z,47.33
2023-06-11T12:40:20.868Z,45.69
2023-06-11T12:45:28.325Z,45.83
2023-06-11T12:50:30.945Z,45.65
2023-06-11T12:55:33.994Z,45.23
2023-06-11T13:00:41.897Z,47.01
2023-06-11T13:05:46.339Z,47.18
2023-06-11T13:10:53.837Z,49.24
2023-06-11T13:15:55.835Z,46.09
2023-06-11T13:21:00.360Z,45.89
2023-06-11T13:26:22.903Z,45.42
2023-06-11T13:32:03.370Z,46.09
2023-06-11T13:37:11.000Z,46.29
2023-06-11T13:42:28.828Z,46.63
2023-06-11T13:48:19.454Z,47.39
2023-06-11T13:53:31.055Z,47.10
2023-06-11T13:58:45.065Z,46.86
2023-06-11T14:03:49.994Z,45.49
2023-06-11T14:09:11.499Z,44.15
2023-06-11T14:14:18.239Z,45.67
2023-06-11T14:19:47.828Z,45.81
2023-06-11T14:25:18.387Z,44.26
2023-06-11T14:30:23.530Z,44.14
2023-06-11T14:35:26.303Z,43.15
2023-06-11T14:40:32.440Z,44.99
2023-06-11T14:45:46.439Z,45.72
2023-06-11T14:50:56.772Z,45.71
2023-06-11T14:56:04.812Z,43.09
2023-06-11T15:01:16.260Z,43.37
2023-06-11T15:06:18.877Z,44.15
2023-06-11T15:11:35.707Z,45.62
2023-06-11T15:16:55.932Z,45.08
2023-06-11T15:22:11.239Z,43.54
2023-06-11T15:27:21.590Z,43.46
2023-06-11T15:32:27.511Z,42.79
2023-06-11T15:37:33.054Z,41.46
2023-06-11T15:42:58.131Z,43.21
2023-06-11T15:48:09.864Z,43.39
2023-06-11T15:53:36.961Z,43.52
2023-06-11T15:58:42.140Z,43.30
2023-06-11T16:03:45.091Z,44.39
2023-06-11T16:09:01.720Z,44.87
2023-06-11T16:14:39.463Z,44.13
2023-06-11T16:19:53.574Z,44.50
2023-06-11T16:25:07.482Z,44.25
2023-06-11T16:30:18.335Z,43.91
2023-06-11T16:35:36.554Z,45.32
2023-06-11T16:41:10.171Z,43.95
2023-06-11T16:46:57.928Z,44.42
2023-06-11T16:52:17.211Z,44.59
2023-06-11T16:57:20.277Z,43.44
2023-06-11T17:02:33.341Z,43.68
2023-06-11T17:07:40.821Z,44.16
2023-06-11T17:13:03.338Z,43.30
2023-06-11T17:18:08.400Z,41.87
2023-06-11T17:23:45.659Z,41.42
2023-06-11T17:28:51.005Z,39.72
2023-06-11T17:33:55.960Z,38.87
2023-06-11T17:39:08.356Z,38.05
2023-06-11T17:44:24.552Z,37.62
2023-06-11T17:49:32.937Z,37.30
2023-06-11T17:54:40.423Z,38.32
2023-06-11T17:59:46.041Z,39.98
2023-06-11T18:04:48.642Z,41.74
2023-06-11T18:09:59.171Z,43.39
2023-06-11T18:15:18.157Z,44.90
2023-06-11T18:20:28.546Z,45.91
2023-06-11T18:25:45.167Z,46.89
2023-06-11T18:31:04.166Z,47.89
2023-06-11T18:36:06.328Z,49.02
2023-06-11T18:41:11.577Z,49.53
2023-06-11T18:46:16.886Z,50.53
2023-06-11T18:51:26.469Z,50.88
2023-06-11T18:56:29.687Z,51.87
2023-06-11T19:01:32.544Z,53.23
2023-06-11T19:06:36.339Z,55.27
2023-06-11T19:12:02.186Z,56.43
2023-06-11T19:17:07.642Z,57.44
2023-06-11T19:22:10.532Z,57.82
2023-06-11T19:27:13.353Z,58.79
2023-06-11T19:32:15.852Z,59.64
2023-06-11T19:37:17.707Z,60.84
2023-06-11T19:42:29.263Z,62.10
2023-06-11T19:47:33.059Z,62.04
2023-06-11T19:52:38.406Z,61.85
2023-06-11T19:57:40.807Z,62.16
2023-06-11T20:02:43.482Z,62.10
2023-06-11T20:07:46.103Z,62.34
2023-06-11T20:12:48.281Z,63.08
2023-06-11T20:18:03.179Z,63.25
2023-06-11T20:23:26.269Z,63.12
2023-06-11T20:28:32.112Z,63.44
2023-06-11T20:33:36.055Z,64.01
2023-06-11T20:38:40.538Z,64.31
2023-06-11T20:43:47.129Z,65.16
2023-06-11T20:48:49.559Z,66.79
2023-06-11T20:53:55.488Z,67.69
2023-06-11T20:58:57.931Z,66.10
2023-06-11T21:04:05.808Z,65.99
2023-06-11T21:09:10.300Z,66.14
2023-06-11T21:14:18.399Z,66.35
2023-06-11T21:19:21.362Z,67.36
2023-06-11T21:24:38.602Z,68.53
2023-06-11T21:29:58.602Z,69.01
2023-06-11T21:35:11.937Z,69.37
2023-06-11T21:40:15.547Z,69.56
2023-06-11T21:45:20.467Z,69.28
2023-06-11T21:50:34.631Z,69.40
2023-06-11T21:55:41.144Z,69.93
2023-06-11T22:00:53.547Z,69.80
2023-06-11T22:05:59.779Z,69.95
2023-06-11T22:11:05.100Z,70.26
2023-06-11T22:16:14.191Z,70.37
2023-06-11T22:21:19.622Z,70.89
2023-06-11T22:26:23.768Z,72.42
2023-06-11T22:31:26.605Z,72.28
2023-06-11T22:36:50.215Z,72.26
2023-06-11T22:42:15.105Z,73.34
2023-06-11T22:47:17.498Z,74.26
2023-06-11T22:52:20.438Z,73.19
2023-06-11T22:57:27.269Z,73.79
2023-06-11T23:02:43.659Z,72.75
2023-06-11T23:07:52.807Z,74.20
2023-06-11T23:12:56.351Z,74.72
2023-06-11T23:18:07.080Z,74.58
2023-06-11T23:23:12.167Z,74.99
2023-06-11T23:28:23.599Z,75.61
2023-06-11T23:33:31.607Z,75.98
2023-06-11T23:38:49.646Z,75.77
2023-06-11T23:43:54.373Z,76.26
2023-06-11T23:49:22.792Z,76.22
2023-06-11T23:55:02.670Z,76.11
